Main page
METAR-TAF:

METAR-TAF

Airports :

Nouakchott, Mauritania

Nouakchott–Oumtounsy International Airport

latitude: 18-18-36N, longitude: 015-58-11W, elevation: 3 m

Current weather observation

The report was made 27 minutes ago, at 13:30 UTC
Wind 4 kt from variable directions
Temperature 35°C
Humidity 13%
Pressure 1010 hPa
Visibility: 8000 m

METAR: GQNO 241330Z VRB04KT 8000 NSC 35/02 Q1010 NOSIG

Time: 13:57 (13:57 UTC)

Forecast

The report was made 2 hours and 53 minutes ago, at 11:04 UTC
Forecast valid from 24 at 12 UTC to 25 at 18 UTC
Wind 10 kt from the Northeast
Visibility: 8000 m
Becoming
from 24 at 15 UTC to 24 at 19 UTC
Wind 12 kt from the North/Northwest

TAF: GQNO 241104Z 2412/2518 04010KT 8000 NSC BECMG 2415/2419 34012KT

Weather observations and forecasts of more than 4000 airports (METAR and TAF reports).

The available stations are represented by yellow and red dots on the map.

Hover mouse over dot to see the name of the station.

Then click to see weather observations and forecasts.

To change the map : click on the green buttons with a black cross to zoom in, on the green button with a dash to zoom out, or on the green arrows for adjacent maps.


METAR-TAF: